Time;durP1;ratioP1;P1;durP2;ratioP2;P2;SDS_P1;SDS_P2;PMS_P1;PMS_P2;Temp;Humidity;BMP_temperature;BMP_pressure;BME280_temperature;BME280_humidity;BME280_pressure;Samples;Min_cycle;Max_cycle;Signal;HPM_P1;HPM_P2
2023/12/01 00:01:21;;;;;;;39.40;17.03;;;;;;;;;;5029323;28;20230;-66
2023/12/01 00:03:48;;;;;;;32.50;15.83;;;;;;;;;;5028572;28;20577;-66
2023/12/01 00:06:13;;;;;;;32.07;15.90;;;;;;;;;;5023054;28;20182;-66
2023/12/01 00:08:38;;;;;;;39.73;16.87;;;;;;;;;;5005277;28;20190;-65
2023/12/01 00:11:04;;;;;;;35.83;15.87;;;;;;;;;;5024480;28;20589;-66
2023/12/01 00:13:29;;;;;;;35.80;16.97;;;;;;;;;;5022364;28;20216;-66
2023/12/01 00:15:54;;;;;;;37.97;17.10;;;;;;;;;;5027182;28;20229;-66
2023/12/01 00:18:20;;;;;;;34.07;14.67;;;;;;;;;;5029465;28;20174;-66
2023/12/01 00:20:45;;;;;;;46.93;16.17;;;;;;;;;;5029814;28;20181;-66
2023/12/01 00:23:10;;;;;;;35.80;16.33;;;;;;;;;;5031089;28;20220;-66
2023/12/01 00:25:36;;;;;;;43.53;16.37;;;;;;;;;;5030777;28;20298;-66
2023/12/01 00:28:01;;;;;;;36.17;16.07;;;;;;;;;;5028332;28;20174;-66
2023/12/01 00:30:29;;;;;;;51.13;17.30;;;;;;;;;;5029107;28;20181;-66
2023/12/01 00:32:54;;;;;;;33.20;15.27;;;;;;;;;;5008834;28;20198;-66
2023/12/01 00:35:20;;;;;;;39.37;14.77;;;;;;;;;;5019675;28;20182;-66
2023/12/01 00:37:45;;;;;;;30.13;13.80;;;;;;;;;;5030985;28;20170;-67
2023/12/01 00:40:10;;;;;;;34.60;15.27;;;;;;;;;;5026300;28;20673;-65
2023/12/01 00:42:36;;;;;;;22.93;11.60;;;;;;;;;;5029507;28;20204;-66
2023/12/01 00:45:02;;;;;;;28.33;11.90;;;;;;;;;;5031084;28;20205;-67
2023/12/01 00:47:27;;;;;;;28.20;11.93;;;;;;;;;;5026601;28;20198;-66
2023/12/01 00:49:52;;;;;;;28.07;13.90;;;;;;;;;;5022446;28;20677;-66
2023/12/01 00:52:17;;;;;;;27.27;12.83;;;;;;;;;;5009606;28;20217;-66
2023/12/01 00:54:42;;;;;;;28.20;13.00;;;;;;;;;;5029157;28;20550;-67
2023/12/01 00:57:08;;;;;;;32.10;14.27;;;;;;;;;;5024719;28;20633;-66
2023/12/01 00:59:33;;;;;;;25.37;12.90;;;;;;;;;;5022027;28;20645;-67
2023/12/01 01:01:58;;;;;;;27.40;13.23;;;;;;;;;;5016369;28;20201;-66
2023/12/01 01:04:23;;;;;;;28.73;13.23;;;;;;;;;;5018894;28;20269;-66
2023/12/01 01:06:48;;;;;;;32.00;13.47;;;;;;;;;;5030812;28;20665;-67
2023/12/01 01:09:14;;;;;;;30.67;13.57;;;;;;;;;;5031011;28;20198;-66
2023/12/01 01:11:39;;;;;;;22.90;12.07;;;;;;;;;;5024387;28;20208;-65
2023/12/01 01:14:04;;;;;;;22.60;10.20;;;;;;;;;;5023751;28;20558;-65
2023/12/01 01:16:29;;;;;;;26.03;12.37;;;;;;;;;;5027875;28;20567;-65
2023/12/01 01:18:54;;;;;;;26.87;12.73;;;;;;;;;;5030550;28;20634;-65
2023/12/01 01:21:20;;;;;;;29.03;12.73;;;;;;;;;;5020854;28;20207;-65
2023/12/01 01:23:45;;;;;;;29.77;12.83;;;;;;;;;;5024286;28;20251;-65
2023/12/01 01:26:10;;;;;;;29.37;12.30;;;;;;;;;;5031075;28;20213;-65
2023/12/01 01:28:35;;;;;;;24.30;10.43;;;;;;;;;;5025290;28;20659;-66
2023/12/01 01:31:00;;;;;;;18.97;9.70;;;;;;;;;;5030726;28;20198;-66
2023/12/01 01:33:27;;;;;;;21.93;9.93;;;;;;;;;;5030686;28;20296;-66
2023/12/01 01:35:52;;;;;;;22.33;10.00;;;;;;;;;;5034665;28;20240;-66
2023/12/01 01:38:17;;;;;;;24.13;10.60;;;;;;;;;;5034358;28;20633;-65
2023/12/01 01:40:42;;;;;;;30.10;10.07;;;;;;;;;;5023171;28;20174;-66
2023/12/01 01:43:08;;;;;;;27.80;10.77;;;;;;;;;;5028881;28;20207;-65
2023/12/01 01:45:33;;;;;;;26.67;11.47;;;;;;;;;;5013694;28;20186;-65
2023/12/01 01:47:59;;;;;;;28.90;10.70;;;;;;;;;;5032736;28;20186;-66
2023/12/01 01:50:25;;;;;;;28.50;11.83;;;;;;;;;;5032276;28;20209;-65
2023/12/01 01:52:51;;;;;;;27.90;13.20;;;;;;;;;;5032070;28;20206;-66
2023/12/01 01:55:16;;;;;;;32.33;11.77;;;;;;;;;;5030527;28;20178;-65
2023/12/01 01:57:44;;;;;;;29.17;13.47;;;;;;;;;;5030349;28;20448;-65
2023/12/01 02:00:10;;;;;;;35.07;14.47;;;;;;;;;;5028013;28;20233;-65
2023/12/01 02:02:35;;;;;;;36.67;15.57;;;;;;;;;;5028906;28;20198;-66
2023/12/01 02:05:01;;;;;;;40.73;15.33;;;;;;;;;;5026268;28;20185;-66
2023/12/01 02:07:27;;;;;;;40.73;15.70;;;;;;;;;;5026225;28;20559;-66
2023/12/01 02:09:54;;;;;;;34.00;16.00;;;;;;;;;;5032272;28;20244;-67
2023/12/01 02:12:19;;;;;;;40.17;16.67;;;;;;;;;;5030073;28;20202;-66
2023/12/01 02:14:44;;;;;;;44.40;17.43;;;;;;;;;;5014702;28;20180;-66
2023/12/01 02:17:10;;;;;;;38.57;15.13;;;;;;;;;;5030379;28;20247;-66
2023/12/01 02:19:35;;;;;;;35.63;15.33;;;;;;;;;;5030902;28;20183;-66
2023/12/01 02:22:00;;;;;;;41.87;16.47;;;;;;;;;;5021117;28;20293;-66
2023/12/01 02:24:25;;;;;;;40.23;16.60;;;;;;;;;;5009111;28;20273;-66
2023/12/01 02:26:50;;;;;;;39.87;16.53;;;;;;;;;;5028087;28;20213;-66
2023/12/01 02:29:16;;;;;;;37.00;15.43;;;;;;;;;;5027094;28;20591;-67
2023/12/01 02:31:41;;;;;;;36.00;14.73;;;;;;;;;;5032888;28;20240;-67
2023/12/01 02:34:06;;;;;;;34.87;14.20;;;;;;;;;;5032610;28;20210;-66
2023/12/01 02:36:31;;;;;;;37.63;15.50;;;;;;;;;;5030928;28;20175;-67
2023/12/01 02:38:56;;;;;;;30.30;14.67;;;;;;;;;;5032595;28;20181;-66
2023/12/01 02:41:22;;;;;;;28.60;13.77;;;;;;;;;;5027379;28;20703;-65
2023/12/01 02:43:47;;;;;;;30.87;13.20;;;;;;;;;;5024871;28;20677;-66
2023/12/01 02:46:12;;;;;;;28.93;12.10;;;;;;;;;;5030488;28;20193;-67
2023/12/01 02:48:41;;;;;;;31.10;13.33;;;;;;;;;;5033566;28;20179;-66
2023/12/01 02:51:07;;;;;;;29.70;12.37;;;;;;;;;;5032156;28;20209;-66
2023/12/01 02:53:32;;;;;;;26.70;12.67;;;;;;;;;;5031819;28;20292;-66
2023/12/01 02:55:57;;;;;;;36.23;12.70;;;;;;;;;;5032163;28;20170;-66
2023/12/01 02:58:24;;;;;;;27.93;12.10;;;;;;;;;;5013499;28;20224;-67
2023/12/01 03:00:49;;;;;;;30.27;12.70;;;;;;;;;;5018800;28;20187;-67
2023/12/01 03:03:14;;;;;;;24.87;11.83;;;;;;;;;;5027604;28;20210;-66
2023/12/01 03:05:39;;;;;;;26.60;11.10;;;;;;;;;;5023137;28;20216;-67
2023/12/01 03:08:04;;;;;;;24.03;11.00;;;;;;;;;;5029975;28;20269;-67
2023/12/01 03:10:30;;;;;;;27.47;12.37;;;;;;;;;;5006592;28;20183;-66
2023/12/01 03:12:55;;;;;;;25.50;12.00;;;;;;;;;;5027278;28;20206;-66
2023/12/01 03:15:20;;;;;;;28.07;11.73;;;;;;;;;;5031248;28;20642;-67
2023/12/01 03:17:46;;;;;;;27.63;11.87;;;;;;;;;;5017181;28;20185;-67
2023/12/01 03:20:14;;;;;;;22.83;10.27;;;;;;;;;;5013950;28;20175;-67
2023/12/01 03:22:40;;;;;;;26.37;11.17;;;;;;;;;;5020392;28;20654;-66
2023/12/01 03:25:09;;;;;;;24.13;11.27;;;;;;;;;;5017271;28;20191;-67
2023/12/01 03:27:35;;;;;;;29.03;12.70;;;;;;;;;;5027652;28;20658;-67
2023/12/01 03:30:00;;;;;;;25.20;10.73;;;;;;;;;;5025255;28;20224;-67
2023/12/01 03:32:25;;;;;;;26.60;12.47;;;;;;;;;;5029243;28;20238;-66
2023/12/01 03:34:51;;;;;;;29.37;12.37;;;;;;;;;;5026575;28;20185;-66
2023/12/01 03:37:16;;;;;;;27.17;10.93;;;;;;;;;;5021903;28;20175;-67
2023/12/01 03:39:41;;;;;;;32.60;12.33;;;;;;;;;;5020109;28;20185;-66
2023/12/01 03:42:08;;;;;;;29.13;12.17;;;;;;;;;;5022107;28;20210;-67
2023/12/01 03:44:34;;;;;;;38.33;12.13;;;;;;;;;;5027681;28;20174;-66
2023/12/01 03:46:59;;;;;;;41.37;13.67;;;;;;;;;;5021018;28;20171;-66
2023/12/01 03:49:25;;;;;;;33.50;13.40;;;;;;;;;;5007776;28;20190;-67
2023/12/01 03:51:52;;;;;;;31.90;13.03;;;;;;;;;;5024316;28;20252;-67
2023/12/01 03:54:17;;;;;;;31.17;12.00;;;;;;;;;;5027276;28;20181;-67
2023/12/01 03:56:42;;;;;;;33.83;13.27;;;;;;;;;;5029111;28;20555;-67
2023/12/01 03:59:09;;;;;;;29.80;13.27;;;;;;;;;;5025990;28;20606;-66
2023/12/01 04:01:36;;;;;;;40.07;15.17;;;;;;;;;;5025302;28;20268;-66
2023/12/01 04:04:01;;;;;;;36.77;13.70;;;;;;;;;;5018314;28;20191;-67
2023/12/01 04:06:26;;;;;;;42.47;14.33;;;;;;;;;;5026153;28;20396;-67
2023/12/01 04:08:53;;;;;;;35.70;13.40;;;;;;;;;;5024562;28;20183;-67
2023/12/01 04:11:18;;;;;;;33.70;14.07;;;;;;;;;;5005053;28;20179;-66
2023/12/01 04:13:44;;;;;;;40.07;14.90;;;;;;;;;;5027723;28;20209;-67
2023/12/01 04:16:09;;;;;;;40.03;14.77;;;;;;;;;;5011941;28;20237;-67
2023/12/01 04:18:35;;;;;;;43.23;15.93;;;;;;;;;;5028325;28;20177;-67
2023/12/01 04:21:00;;;;;;;39.00;15.50;;;;;;;;;;5005634;28;20560;-67
2023/12/01 04:23:26;;;;;;;40.70;14.47;;;;;;;;;;5018641;28;20205;-67
2023/12/01 04:25:51;;;;;;;40.30;15.13;;;;;;;;;;5025298;28;20190;-67
2023/12/01 04:28:16;;;;;;;42.57;16.10;;;;;;;;;;5028169;28;20598;-68
2023/12/01 04:30:44;;;;;;;36.33;14.00;;;;;;;;;;5027434;28;20189;-68
2023/12/01 04:33:13;;;;;;;39.67;16.10;;;;;;;;;;5023589;28;20584;-67
2023/12/01 04:35:38;;;;;;;38.47;14.93;;;;;;;;;;5024300;28;20412;-67
2023/12/01 04:38:04;;;;;;;36.03;14.53;;;;;;;;;;5025468;28;20178;-68
2023/12/01 04:40:29;;;;;;;37.50;13.93;;;;;;;;;;5027534;28;20170;-67
2023/12/01 04:42:55;;;;;;;41.60;14.93;;;;;;;;;;5019792;28;20807;-66
2023/12/01 04:45:21;;;;;;;35.70;14.60;;;;;;;;;;5019922;28;20633;-67
2023/12/01 04:47:50;;;;;;;32.07;13.00;;;;;;;;;;5021976;28;20206;-66
2023/12/01 04:50:16;;;;;;;36.17;14.30;;;;;;;;;;5024824;28;20650;-66
2023/12/01 04:52:45;;;;;;;40.63;16.67;;;;;;;;;;5024927;28;20217;-66
2023/12/01 04:55:12;;;;;;;41.07;15.60;;;;;;;;;;5015402;28;20197;-66
2023/12/01 04:57:37;;;;;;;38.27;16.37;;;;;;;;;;5028334;28;20564;-66
2023/12/01 05:00:18;;;;;;;41.77;15.40;;;;;;;;;;5026001;28;20257;-66
2023/12/01 05:02:44;;;;;;;35.50;15.33;;;;;;;;;;5021992;28;20569;-66
2023/12/01 05:05:11;;;;;;;29.77;13.50;;;;;;;;;;5027252;28;20185;-66
2023/12/01 05:07:36;;;;;;;39.30;14.80;;;;;;;;;;5005488;28;20217;-66
2023/12/01 05:10:08;;;;;;;35.30;14.13;;;;;;;;;;5023807;28;20210;-66
2023/12/01 05:12:33;;;;;;;35.13;16.17;;;;;;;;;;5029928;28;20210;-67
2023/12/01 05:14:58;;;;;;;37.73;15.23;;;;;;;;;;5031932;28;20189;-66
2023/12/01 05:17:23;;;;;;;38.03;14.77;;;;;;;;;;5028172;28;20186;-66
2023/12/01 05:19:49;;;;;;;32.87;13.70;;;;;;;;;;5032113;28;20560;-66
2023/12/01 05:22:14;;;;;;;34.50;15.33;;;;;;;;;;5029187;28;20215;-66
2023/12/01 05:24:39;;;;;;;33.37;13.33;;;;;;;;;;5023991;28;20314;-66
2023/12/01 05:27:07;;;;;;;36.07;15.93;;;;;;;;;;5027783;28;20227;-66
2023/12/01 05:29:34;;;;;;;35.13;13.70;;;;;;;;;;5024279;28;20182;-67
2023/12/01 05:31:59;;;;;;;38.17;16.17;;;;;;;;;;5024906;28;20202;-66
2023/12/01 05:34:24;;;;;;;39.57;15.90;;;;;;;;;;5030456;28;20186;-66
2023/12/01 05:36:50;;;;;;;35.50;13.93;;;;;;;;;;5029006;28;20179;-66
2023/12/01 05:39:16;;;;;;;35.83;14.77;;;;;;;;;;5011080;28;20183;-66
2023/12/01 05:41:41;;;;;;;32.27;13.80;;;;;;;;;;5028022;28;20554;-66
2023/12/01 05:44:06;;;;;;;38.77;14.47;;;;;;;;;;5025388;28;20240;-66
2023/12/01 05:46:31;;;;;;;34.20;14.03;;;;;;;;;;5030908;28;20240;-66
2023/12/01 05:48:57;;;;;;;40.23;15.43;;;;;;;;;;5013901;28;20185;-66
2023/12/01 05:51:22;;;;;;;39.73;14.17;;;;;;;;;;5014709;28;20297;-66
2023/12/01 05:53:48;;;;;;;34.37;14.23;;;;;;;;;;5014188;28;20200;-66
2023/12/01 05:56:14;;;;;;;29.00;14.07;;;;;;;;;;5028378;28;20368;-66
2023/12/01 05:58:39;;;;;;;35.37;14.77;;;;;;;;;;5027631;28;20190;-66
2023/12/01 06:01:04;;;;;;;30.77;14.57;;;;;;;;;;5032408;28;20732;-66
2023/12/01 06:03:29;;;;;;;34.43;14.83;;;;;;;;;;5024198;28;20179;-66
2023/12/01 06:05:55;;;;;;;31.17;13.67;;;;;;;;;;5027693;28;20198;-66
2023/12/01 06:08:20;;;;;;;36.60;13.87;;;;;;;;;;5025941;28;20174;-66
2023/12/01 06:10:45;;;;;;;35.70;14.90;;;;;;;;;;5030984;28;20194;-66
2023/12/01 06:13:11;;;;;;;39.93;15.40;;;;;;;;;;5011222;28;20211;-66
2023/12/01 06:15:36;;;;;;;47.47;15.60;;;;;;;;;;5031041;28;20170;-67
2023/12/01 06:18:02;;;;;;;34.23;16.27;;;;;;;;;;5030873;28;20174;-66
2023/12/01 06:20:29;;;;;;;35.30;15.60;;;;;;;;;;5032394;28;20170;-66
2023/12/01 06:22:59;;;;;;;38.50;16.77;;;;;;;;;;5027850;28;20252;-66
2023/12/01 06:25:29;;;;;;;34.00;14.67;;;;;;;;;;5019684;28;20193;-66
2023/12/01 06:27:57;;;;;;;34.13;15.33;;;;;;;;;;5009240;28;20185;-67
2023/12/01 06:30:23;;;;;;;42.97;16.63;;;;;;;;;;5027580;28;20231;-67
2023/12/01 06:32:50;;;;;;;38.47;17.83;;;;;;;;;;5029133;28;20210;-67
2023/12/01 06:35:16;;;;;;;34.60;14.23;;;;;;;;;;5029068;28;20221;-67
2023/12/01 06:37:42;;;;;;;35.80;15.07;;;;;;;;;;5029823;28;20773;-67
2023/12/01 06:40:11;;;;;;;37.90;15.37;;;;;;;;;;5030670;28;20261;-67
2023/12/01 06:42:38;;;;;;;32.00;15.30;;;;;;;;;;5030169;28;20194;-66
2023/12/01 06:45:03;;;;;;;37.60;14.20;;;;;;;;;;5028049;28;20182;-66
2023/12/01 06:47:28;;;;;;;35.73;14.60;;;;;;;;;;5012252;28;20241;-66
2023/12/01 06:49:55;;;;;;;34.37;15.00;;;;;;;;;;5019631;28;20182;-66
2023/12/01 06:52:21;;;;;;;30.77;14.20;;;;;;;;;;5028491;28;20241;-66
2023/12/01 06:54:46;;;;;;;33.77;16.00;;;;;;;;;;5028181;28;20649;-66
2023/12/01 06:57:11;;;;;;;35.70;15.47;;;;;;;;;;5026341;28;20616;-66
2023/12/01 06:59:36;;;;;;;42.53;16.40;;;;;;;;;;5028372;28;20221;-66
2023/12/01 07:02:01;;;;;;;44.57;16.73;;;;;;;;;;5021598;28;20194;-66
2023/12/01 07:04:27;;;;;;;37.67;14.70;;;;;;;;;;5029007;28;20178;-66
2023/12/01 07:06:53;;;;;;;34.60;14.30;;;;;;;;;;5012710;28;20175;-66
2023/12/01 07:09:18;;;;;;;36.13;14.77;;;;;;;;;;5002774;28;20177;-66
2023/12/01 07:11:45;;;;;;;39.00;14.53;;;;;;;;;;5025850;28;20194;-66
2023/12/01 07:14:12;;;;;;;40.27;14.97;;;;;;;;;;5027884;28;20581;-66
2023/12/01 07:16:37;;;;;;;40.50;15.40;;;;;;;;;;5028789;28;20174;-66
2023/12/01 07:19:03;;;;;;;30.73;14.20;;;;;;;;;;5026280;28;20197;-66
2023/12/01 07:21:30;;;;;;;34.40;14.13;;;;;;;;;;5028785;28;20576;-67
2023/12/01 07:23:55;;;;;;;34.50;14.87;;;;;;;;;;5030583;28;20184;-67
2023/12/01 07:26:25;;;;;;;35.60;14.13;;;;;;;;;;5030930;28;20178;-67
2023/12/01 07:28:52;;;;;;;35.40;13.87;;;;;;;;;;5023102;28;20178;-66
2023/12/01 07:31:17;;;;;;;37.83;15.20;;;;;;;;;;5022094;28;20178;-67
2023/12/01 07:33:42;;;;;;;34.60;15.07;;;;;;;;;;5009423;28;20651;-67
2023/12/01 07:36:09;;;;;;;35.10;14.30;;;;;;;;;;5027523;28;20623;-67
2023/12/01 07:38:34;;;;;;;37.03;14.30;;;;;;;;;;5029453;28;20236;-67
2023/12/01 07:40:59;;;;;;;29.90;14.17;;;;;;;;;;5026078;28;20650;-66
2023/12/01 07:43:25;;;;;;;35.23;15.10;;;;;;;;;;5029445;28;20240;-67
2023/12/01 07:45:50;;;;;;;37.17;15.30;;;;;;;;;;5028620;28;20273;-67
2023/12/01 07:48:15;;;;;;;36.40;15.00;;;;;;;;;;5018800;28;20262;-67
2023/12/01 07:50:40;;;;;;;30.63;13.97;;;;;;;;;;5025887;28;20182;-67
2023/12/01 07:53:07;;;;;;;34.53;13.77;;;;;;;;;;5022513;28;20206;-67
2023/12/01 07:55:33;;;;;;;29.13;12.77;;;;;;;;;;5028343;28;20178;-67
2023/12/01 07:57:58;;;;;;;32.57;13.70;;;;;;;;;;5027751;28;20170;-67
2023/12/01 08:00:24;;;;;;;35.53;15.43;;;;;;;;;;5026224;28;20605;-67
2023/12/01 08:02:52;;;;;;;33.53;14.27;;;;;;;;;;5027496;28;20209;-67
2023/12/01 08:05:18;;;;;;;30.83;11.80;;;;;;;;;;5025456;28;20186;-66
2023/12/01 08:07:44;;;;;;;29.00;12.10;;;;;;;;;;5016023;28;20944;-67
2023/12/01 08:10:09;;;;;;;28.23;12.70;;;;;;;;;;5027488;28;20254;-67
2023/12/01 08:12:34;;;;;;;29.33;11.73;;;;;;;;;;5026978;28;20206;-67
2023/12/01 08:15:00;;;;;;;32.53;12.90;;;;;;;;;;5018790;28;20181;-67
2023/12/01 08:17:25;;;;;;;27.93;11.27;;;;;;;;;;5020903;28;20185;-67
2023/12/01 08:19:51;;;;;;;32.50;12.17;;;;;;;;;;5025035;28;20300;-67
2023/12/01 08:22:17;;;;;;;25.00;10.00;;;;;;;;;;5024068;28;20203;-67
2023/12/01 08:24:42;;;;;;;27.07;11.10;;;;;;;;;;5012588;28;20197;-66
2023/12/01 08:27:07;;;;;;;28.63;11.50;;;;;;;;;;5025461;28;20182;-67
2023/12/01 08:29:32;;;;;;;24.83;9.33;;;;;;;;;;5022048;28;20174;-66
2023/12/01 08:31:58;;;;;;;25.47;11.77;;;;;;;;;;5012600;28;20205;-67
2023/12/01 08:34:23;;;;;;;28.07;10.93;;;;;;;;;;5020798;28;20186;-66
2023/12/01 08:36:49;;;;;;;25.33;10.57;;;;;;;;;;5018592;28;20186;-67
2023/12/01 08:39:14;;;;;;;34.53;11.77;;;;;;;;;;5027709;28;20261;-67
2023/12/01 08:41:40;;;;;;;24.77;11.57;;;;;;;;;;5023698;28;20198;-67
2023/12/01 08:44:05;;;;;;;22.83;10.27;;;;;;;;;;5029096;28;20186;-67
2023/12/01 08:46:30;;;;;;;27.33;10.37;;;;;;;;;;5018809;28;20190;-67
2023/12/01 08:48:56;;;;;;;27.50;11.13;;;;;;;;;;5020560;28;20182;-67
2023/12/01 08:51:21;;;;;;;23.83;9.73;;;;;;;;;;5004806;28;20800;-67
2023/12/01 08:53:47;;;;;;;25.47;10.10;;;;;;;;;;5025589;28;20236;-68
2023/12/01 08:56:12;;;;;;;24.43;10.40;;;;;;;;;;5024725;28;20166;-67
2023/12/01 08:58:37;;;;;;;25.40;10.00;;;;;;;;;;5019733;28;20174;-67
2023/12/01 09:01:02;;;;;;;29.07;10.87;;;;;;;;;;5026423;28;20611;-67
2023/12/01 09:03:28;;;;;;;24.70;10.83;;;;;;;;;;5021429;28;20201;-67
2023/12/01 09:05:53;;;;;;;23.73;10.77;;;;;;;;;;4993270;28;20641;-67
2023/12/01 09:08:18;;;;;;;25.47;10.87;;;;;;;;;;5022241;28;20187;-67
2023/12/01 09:10:43;;;;;;;26.60;11.50;;;;;;;;;;5020731;28;20178;-67
2023/12/01 09:13:09;;;;;;;21.17;9.50;;;;;;;;;;5020088;28;20203;-67
2023/12/01 09:15:34;;;;;;;21.83;9.57;;;;;;;;;;5020043;28;20175;-67
2023/12/01 09:17:59;;;;;;;20.27;9.43;;;;;;;;;;5025170;28;20196;-68
2023/12/01 09:20:24;;;;;;;22.57;10.17;;;;;;;;;;5022360;28;20269;-67
2023/12/01 09:22:49;;;;;;;21.57;9.00;;;;;;;;;;5025508;28;20348;-67
2023/12/01 09:25:15;;;;;;;21.37;9.00;;;;;;;;;;5023902;28;20183;-67
2023/12/01 09:27:41;;;;;;;20.57;8.63;;;;;;;;;;5019520;28;20192;-67
2023/12/01 09:30:09;;;;;;;23.43;9.67;;;;;;;;;;5021585;28;20182;-67
2023/12/01 09:32:35;;;;;;;21.13;10.53;;;;;;;;;;5008333;28;20214;-67
2023/12/01 09:35:00;;;;;;;20.30;11.07;;;;;;;;;;5028002;28;20638;-68
2023/12/01 09:37:25;;;;;;;29.50;12.37;;;;;;;;;;5026542;28;20175;-68
2023/12/01 09:39:51;;;;;;;29.53;14.00;;;;;;;;;;5009882;28;20170;-67
2023/12/01 09:42:17;;;;;;;36.07;15.70;;;;;;;;;;5010755;28;20199;-68
2023/12/01 09:44:42;;;;;;;36.30;16.57;;;;;;;;;;5024791;28;20179;-68
2023/12/01 09:47:12;;;;;;;28.03;12.17;;;;;;;;;;5029273;28;20186;-67
2023/12/01 09:49:38;;;;;;;27.70;11.03;;;;;;;;;;5031649;28;20166;-67
2023/12/01 09:52:03;;;;;;;23.97;10.50;;;;;;;;;;5030723;28;20301;-68
2023/12/01 09:54:29;;;;;;;30.50;12.03;;;;;;;;;;5028680;28;20676;-68
2023/12/01 09:56:55;;;;;;;23.43;9.40;;;;;;;;;;5029561;28;20665;-68
2023/12/01 09:59:21;;;;;;;24.10;10.37;;;;;;;;;;5029995;28;20182;-68
2023/12/01 10:01:47;;;;;;;22.97;10.10;;;;;;;;;;5031464;28;20206;-68
2023/12/01 10:04:13;;;;;;;20.37;9.53;;;;;;;;;;5025078;28;20262;-68
2023/12/01 10:06:39;;;;;;;19.37;9.53;;;;;;;;;;5029596;28;20183;-68
2023/12/01 10:09:09;;;;;;;21.20;9.27;;;;;;;;;;5023835;28;20185;-68
2023/12/01 10:11:35;;;;;;;20.50;8.27;;;;;;;;;;5025815;28;20198;-68
2023/12/01 10:14:05;;;;;;;19.43;9.17;;;;;;;;;;5011915;28;20205;-68
2023/12/01 10:16:34;;;;;;;17.67;7.97;;;;;;;;;;5025185;28;20170;-68
2023/12/01 10:19:00;;;;;;;17.10;7.67;;;;;;;;;;5027901;28;20257;-68
2023/12/01 10:21:44;;;;;;;20.03;9.20;;;;;;;;;;5022208;28;20344;-68
2023/12/01 10:24:12;;;;;;;19.30;7.53;;;;;;;;;;5027573;28;20182;-68
2023/12/01 10:26:38;;;;;;;20.70;8.33;;;;;;;;;;5010322;28;20541;-68
2023/12/01 10:29:03;;;;;;;19.20;8.00;;;;;;;;;;5011500;28;20171;-68
2023/12/01 10:31:28;;;;;;;19.60;9.20;;;;;;;;;;5027635;28;20213;-68
2023/12/01 10:33:54;;;;;;;17.07;7.53;;;;;;;;;;5009178;28;20328;-67
2023/12/01 10:36:20;;;;;;;15.17;7.83;;;;;;;;;;5030445;28;20182;-67
2023/12/01 10:38:46;;;;;;;17.60;7.90;;;;;;;;;;5030565;28;20182;-67
2023/12/01 10:41:12;;;;;;;17.30;7.73;;;;;;;;;;5031818;28;20608;-67
2023/12/01 10:43:38;;;;;;;16.67;7.13;;;;;;;;;;5007259;28;20178;-67
2023/12/01 10:46:05;;;;;;;15.43;6.55;;;;;;;;;;5027243;28;20627;-67
2023/12/01 10:48:31;;;;;;;16.42;8.05;;;;;;;;;;5020225;28;20194;-67
2023/12/01 10:50:56;;;;;;;18.88;7.97;;;;;;;;;;5003070;28;20599;-67
2023/12/01 10:53:28;;;;;;;16.85;7.93;;;;;;;;;;5002565;28;20225;-67
2023/12/01 10:55:54;;;;;;;14.90;7.90;;;;;;;;;;5026409;28;20167;-67
2023/12/01 10:58:23;;;;;;;15.95;7.65;;;;;;;;;;5011668;28;20175;-68
2023/12/01 11:00:49;;;;;;;13.17;7.70;;;;;;;;;;5032292;28;20178;-67
2023/12/01 11:03:17;;;;;;;20.67;8.73;;;;;;;;;;5026447;28;20617;-67
2023/12/01 11:05:42;;;;;;;15.57;7.23;;;;;;;;;;5018576;28;20219;-67
2023/12/01 11:08:08;;;;;;;17.57;7.20;;;;;;;;;;5025741;28;20648;-67
2023/12/01 11:10:55;;;;;;;17.97;8.00;;;;;;;;;;5027134;28;20653;-67
2023/12/01 11:13:20;;;;;;;16.90;7.83;;;;;;;;;;5027753;28;20202;-68
2023/12/01 11:15:49;;;;;;;15.50;7.10;;;;;;;;;;5028786;28;20246;-67
2023/12/01 11:18:15;;;;;;;15.80;7.80;;;;;;;;;;5026145;28;20642;-67
2023/12/01 11:20:41;;;;;;;16.67;7.53;;;;;;;;;;5028321;28;20182;-67
2023/12/01 11:23:24;;;;;;;16.37;7.87;;;;;;;;;;5027825;28;20221;-67
2023/12/01 11:25:55;;;;;;;16.03;7.67;;;;;;;;;;5013630;28;20182;-68
2023/12/01 11:28:45;;;;;;;18.77;8.13;;;;;;;;;;5009032;28;20646;-67
2023/12/01 11:31:34;;;;;;;17.30;7.10;;;;;;;;;;5021379;28;20197;-67
2023/12/01 11:34:00;;;;;;;17.13;8.30;;;;;;;;;;5009928;28;20236;-68
2023/12/01 11:36:32;;;;;;;16.23;7.33;;;;;;;;;;5021320;28;20272;-68
2023/12/01 11:39:08;;;;;;;14.57;7.80;;;;;;;;;;5028698;28;20255;-68
2023/12/01 11:41:33;;;;;;;17.50;8.60;;;;;;;;;;5021902;28;20242;-68
2023/12/01 11:44:07;;;;;;;15.50;7.37;;;;;;;;;;5029481;28;20193;-68
2023/12/01 11:46:33;;;;;;;13.60;6.70;;;;;;;;;;5023577;28;20648;-68
2023/12/01 11:48:58;;;;;;;14.50;6.40;;;;;;;;;;5023913;28;20220;-68
2023/12/01 11:51:23;;;;;;;13.45;6.75;;;;;;;;;;5027411;28;20206;-68
2023/12/01 11:53:56;;;;;;;13.75;7.22;;;;;;;;;;5021945;28;20194;-68
2023/12/01 11:56:24;;;;;;;15.85;7.35;;;;;;;;;;5024206;28;20740;-68
2023/12/01 11:58:51;;;;;;;15.32;7.43;;;;;;;;;;5019482;28;20203;-68
2023/12/01 12:01:16;;;;;;;16.15;8.30;;;;;;;;;;5011357;28;20646;-67
2023/12/01 12:03:41;;;;;;;14.40;7.10;;;;;;;;;;5022009;28;20261;-67
2023/12/01 12:06:07;;;;;;;12.13;6.93;;;;;;;;;;5022939;28;20216;-67
2023/12/01 12:08:33;;;;;;;15.25;7.50;;;;;;;;;;5024986;28;20200;-68
2023/12/01 12:10:59;;;;;;;15.90;7.45;;;;;;;;;;5020562;28;20561;-68
2023/12/01 12:13:24;;;;;;;15.32;6.43;;;;;;;;;;5010307;28;20213;-67
2023/12/01 12:15:49;;;;;;;14.73;6.90;;;;;;;;;;5028681;28;20170;-68
2023/12/01 12:18:15;;;;;;;11.90;6.88;;;;;;;;;;5024500;28;20680;-68
2023/12/01 12:20:40;;;;;;;13.85;6.80;;;;;;;;;;5029795;28;20197;-67
2023/12/01 12:23:06;;;;;;;13.60;6.82;;;;;;;;;;5029429;28;20234;-67
2023/12/01 12:25:37;;;;;;;17.37;7.00;;;;;;;;;;5027482;28;20182;-67
2023/12/01 12:28:12;;;;;;;12.33;6.33;;;;;;;;;;5028946;28;20725;-67
2023/12/01 12:30:37;;;;;;;12.73;6.20;;;;;;;;;;5028204;28;20185;-66
2023/12/01 12:33:02;;;;;;;13.47;6.10;;;;;;;;;;5008350;28;20207;-66
2023/12/01 12:35:28;;;;;;;13.83;6.73;;;;;;;;;;5029859;28;20186;-68
2023/12/01 12:37:53;;;;;;;13.83;6.47;;;;;;;;;;5026172;28;20179;-67
2023/12/01 12:40:18;;;;;;;12.70;6.97;;;;;;;;;;5025196;28;20174;-67
2023/12/01 12:42:56;;;;;;;13.13;6.80;;;;;;;;;;5004772;28;20698;-68
2023/12/01 12:45:22;;;;;;;14.23;7.33;;;;;;;;;;5026056;28;20174;-67
2023/12/01 12:47:47;;;;;;;14.33;6.93;;;;;;;;;;5019927;28;20175;-68
2023/12/01 12:50:17;;;;;;;15.33;7.00;;;;;;;;;;5029676;28;20185;-67
2023/12/01 12:52:42;;;;;;;16.30;6.87;;;;;;;;;;5025172;28;20210;-67
2023/12/01 12:55:07;;;;;;;16.30;7.17;;;;;;;;;;5034708;28;20174;-67
2023/12/01 12:57:32;;;;;;;12.30;6.37;;;;;;;;;;5027480;28;20170;-67
2023/12/01 12:59:58;;;;;;;15.93;7.37;;;;;;;;;;5028449;28;20174;-67
2023/12/01 13:02:23;;;;;;;15.03;7.50;;;;;;;;;;5028134;28;20574;-67
2023/12/01 13:04:48;;;;;;;13.97;6.67;;;;;;;;;;5023562;28;20197;-67
2023/12/01 13:07:14;;;;;;;11.90;6.27;;;;;;;;;;5023494;28;20174;-68
2023/12/01 13:09:39;;;;;;;11.33;6.13;;;;;;;;;;5025801;28;20341;-68
2023/12/01 13:12:04;;;;;;;11.73;6.63;;;;;;;;;;5030151;28;20206;-68
2023/12/01 13:14:29;;;;;;;12.50;6.30;;;;;;;;;;5027831;28;20206;-68
2023/12/01 13:16:55;;;;;;;12.53;6.07;;;;;;;;;;5027616;28;20179;-68
2023/12/01 13:19:20;;;;;;;10.67;4.97;;;;;;;;;;5028800;28;20217;-68
2023/12/01 13:21:45;;;;;;;14.87;5.43;;;;;;;;;;5023423;28;20252;-68
2023/12/01 13:24:11;;;;;;;11.03;5.50;;;;;;;;;;5019410;28;20178;-68
2023/12/01 13:26:36;;;;;;;13.77;6.20;;;;;;;;;;5025425;28;20202;-67
2023/12/01 13:29:01;;;;;;;13.10;6.77;;;;;;;;;;5028898;28;20201;-68
2023/12/01 13:31:27;;;;;;;14.83;6.97;;;;;;;;;;5029901;28;20194;-68
2023/12/01 13:33:55;;;;;;;11.83;6.23;;;;;;;;;;5032797;28;20237;-68
2023/12/01 13:36:20;;;;;;;13.60;5.93;;;;;;;;;;5027283;28;20643;-68
2023/12/01 13:38:47;;;;;;;14.73;7.20;;;;;;;;;;5030727;28;20190;-68
2023/12/01 13:41:12;;;;;;;14.07;5.90;;;;;;;;;;5032541;28;20182;-68
2023/12/01 13:43:38;;;;;;;16.40;6.53;;;;;;;;;;5029022;28;20571;-67
2023/12/01 13:46:03;;;;;;;17.27;7.93;;;;;;;;;;5025830;28;20650;-67
2023/12/01 13:48:29;;;;;;;14.53;7.37;;;;;;;;;;5030138;28;21152;-67
2023/12/01 13:50:54;;;;;;;12.80;7.20;;;;;;;;;;5029109;28;20186;-67
2023/12/01 13:53:19;;;;;;;13.20;6.27;;;;;;;;;;5027031;28;20296;-68
2023/12/01 13:55:44;;;;;;;15.43;6.70;;;;;;;;;;5032021;28;20186;-68
2023/12/01 13:58:11;;;;;;;10.97;5.70;;;;;;;;;;5032883;28;20178;-68
2023/12/01 14:00:36;;;;;;;13.83;6.03;;;;;;;;;;5024967;28;20269;-68
2023/12/01 14:03:02;;;;;;;12.80;7.00;;;;;;;;;;5029866;28;20554;-67
2023/12/01 14:05:27;;;;;;;14.13;7.37;;;;;;;;;;5030155;28;20190;-67
2023/12/01 14:07:52;;;;;;;12.70;6.73;;;;;;;;;;5010971;28;20174;-67
2023/12/01 14:10:18;;;;;;;14.83;6.77;;;;;;;;;;5027556;28;20270;-68
2023/12/01 14:12:44;;;;;;;12.20;6.60;;;;;;;;;;5028676;28;20251;-67
2023/12/01 14:15:10;;;;;;;12.87;6.17;;;;;;;;;;5031934;28;20224;-68